createdAt,value
2018-01-24T00:00:37.383Z,101218.84
2018-01-24T00:03:12.401Z,101220.77
2018-01-24T00:05:47.379Z,101216.30
2018-01-24T00:08:22.076Z,101204.36
2018-01-24T00:10:57.243Z,101197.42
2018-01-24T00:13:32.245Z,101185.01
2018-01-24T00:16:07.386Z,101190.91
2018-01-24T00:18:42.044Z,101182.78
2018-01-24T00:21:17.170Z,101187.64
2018-01-24T00:23:52.430Z,101188.02
2018-01-24T00:26:27.393Z,101189.14
2018-01-24T00:29:02.341Z,101193.13
2018-01-24T00:31:37.442Z,101191.45
2018-01-24T00:34:12.364Z,101187.60
2018-01-24T00:36:47.307Z,101196.14
2018-01-24T00:39:22.519Z,101183.45
2018-01-24T00:41:57.503Z,101178.25
2018-01-24T00:44:32.412Z,101165.86
2018-01-24T00:47:07.724Z,101182.77
2018-01-24T00:49:42.382Z,101179.13
2018-01-24T00:52:17.657Z,101168.90
2018-01-24T00:54:52.643Z,101163.95
2018-01-24T00:57:27.619Z,101171.91
2018-01-24T01:00:02.727Z,101161.83
2018-01-24T01:02:37.532Z,101155.30
2018-01-24T01:05:12.590Z,101152.41
2018-01-24T01:07:47.674Z,101157.42
2018-01-24T01:10:24.267Z,101153.08
2018-01-24T01:12:59.340Z,101154.22
2018-01-24T01:15:33.826Z,101154.08
2018-01-24T01:18:08.717Z,101156.16
2018-01-24T01:20:43.735Z,101158.80
2018-01-24T01:23:19.507Z,101152.94
2018-01-24T01:25:54.487Z,101160.70
2018-01-24T01:28:29.396Z,101164.62
2018-01-24T01:31:04.427Z,101179.36
2018-01-24T01:33:39.782Z,101164.80
2018-01-24T01:36:14.894Z,101172.81
2018-01-24T01:38:50.261Z,101166.99
2018-01-24T01:41:25.365Z,101173.98
2018-01-24T01:44:00.250Z,101158.16
2018-01-24T01:46:35.098Z,101159.30
2018-01-24T01:49:10.355Z,101168.61
2018-01-24T01:51:45.259Z,101163.39
2018-01-24T01:54:20.291Z,101164.16
2018-01-24T01:56:55.191Z,101157.45
2018-01-24T01:59:30.196Z,101157.51
2018-01-24T02:02:06.770Z,101160.47
2018-01-24T02:04:41.664Z,101163.98
2018-01-24T02:07:16.725Z,101160.00
2018-01-24T02:09:51.394Z,101167.44
2018-01-24T02:12:26.496Z,101144.36
2018-01-24T02:15:01.740Z,101155.63
2018-01-24T02:17:36.426Z,101144.30
2018-01-24T02:20:11.546Z,101149.93
2018-01-24T02:22:46.454Z,101157.05
2018-01-24T02:25:21.722Z,101165.18
2018-01-24T02:27:57.005Z,101167.64
2018-01-24T02:30:31.982Z,101168.72
2018-01-24T02:33:07.087Z,101164.48
2018-01-24T02:35:42.209Z,101175.19
2018-01-24T02:38:28.608Z,101160.20
2018-01-24T02:41:03.532Z,101170.51
2018-01-24T02:43:38.681Z,101166.73
2018-01-24T02:46:13.092Z,101152.13
2018-01-24T02:48:47.720Z,101145.07
2018-01-24T02:51:22.615Z,101156.34
2018-01-24T02:53:57.716Z,101157.12
2018-01-24T02:56:33.182Z,101155.31
2018-01-24T02:59:08.378Z,101154.73
2018-01-24T03:01:43.191Z,101143.46
2018-01-24T03:04:18.254Z,101139.60
2018-01-24T03:06:53.482Z,101138.78
2018-01-24T03:09:28.651Z,101142.94
2018-01-24T03:12:03.823Z,101144.86
2018-01-24T03:14:39.050Z,101147.88
2018-01-24T03:17:13.930Z,101137.05
2018-01-24T03:19:49.107Z,101143.25
2018-01-24T03:22:24.102Z,101135.70
2018-01-24T03:24:59.691Z,101144.04
2018-01-24T03:27:34.431Z,101140.88
2018-01-24T03:30:09.622Z,101135.69
2018-01-24T03:32:44.589Z,101139.02
2018-01-24T03:35:19.779Z,101136.86
2018-01-24T03:37:54.344Z,101137.79
2018-01-24T03:40:29.239Z,101138.32
2018-01-24T03:43:04.731Z,101139.52
2018-01-24T03:45:39.725Z,101146.98
2018-01-24T03:48:14.811Z,101142.73
2018-01-24T03:50:49.715Z,101143.17
2018-01-24T03:53:24.718Z,101145.80
2018-01-24T03:55:59.401Z,101144.34
2018-01-24T03:58:34.886Z,101140.23
2018-01-24T04:01:10.071Z,101153.45
2018-01-24T04:03:44.547Z,101141.05
2018-01-24T04:06:20.050Z,101157.42
2018-01-24T04:08:54.800Z,101167.81
2018-01-24T04:11:30.081Z,101159.55
2018-01-24T04:14:05.247Z,101161.22
2018-01-24T04:16:39.898Z,101166.16
2018-01-24T04:19:14.305Z,101179.04
2018-01-24T04:21:49.127Z,101169.45
2018-01-24T04:24:24.424Z,101171.82
2018-01-24T04:26:59.105Z,101170.67
2018-01-24T04:29:33.771Z,101179.18
2018-01-24T04:32:08.863Z,101173.92
2018-01-24T04:34:44.095Z,101169.94
2018-01-24T04:37:19.009Z,101172.30
2018-01-24T04:39:54.328Z,101163.11
2018-01-24T04:42:29.408Z,101163.70
2018-01-24T04:45:04.787Z,101163.39
2018-01-24T04:47:39.623Z,101169.03
2018-01-24T04:50:14.866Z,101157.94
2018-01-24T04:52:49.854Z,101165.68
2018-01-24T04:55:24.790Z,101162.14
2018-01-24T04:57:59.363Z,101168.77
2018-01-24T05:00:34.082Z,101165.59
2018-01-24T05:03:09.236Z,101166.95
2018-01-24T05:05:44.433Z,101164.31
2018-01-24T05:08:19.121Z,101165.31
2018-01-24T05:10:53.692Z,101160.20
2018-01-24T05:13:28.702Z,101161.05
2018-01-24T05:16:03.854Z,101154.75
2018-01-24T05:18:38.710Z,101155.06
2018-01-24T05:21:13.089Z,101157.58
2018-01-24T05:23:48.357Z,101165.98
2018-01-24T05:26:23.510Z,101162.06
2018-01-24T05:28:59.030Z,101165.20
2018-01-24T05:31:33.928Z,101168.80
2018-01-24T05:34:09.231Z,101155.51
2018-01-24T05:36:44.214Z,101160.50
2018-01-24T05:39:19.622Z,101157.17
2018-01-24T05:41:54.054Z,101166.73
2018-01-24T05:44:28.934Z,101159.86
2018-01-24T05:47:04.135Z,101160.98
2018-01-24T05:49:39.229Z,101153.28
2018-01-24T05:52:15.153Z,101148.01
2018-01-24T05:54:49.630Z,101145.75
2018-01-24T05:57:24.543Z,101144.22
2018-01-24T05:59:59.967Z,101141.64
2018-01-24T06:02:35.086Z,101133.64
2018-01-24T06:05:10.148Z,101140.78
2018-01-24T06:07:45.158Z,101131.84
2018-01-24T06:10:20.357Z,101133.33
2018-01-24T06:12:55.249Z,101130.34
2018-01-24T06:15:30.314Z,101129.43
2018-01-24T06:18:05.240Z,101130.62
2018-01-24T06:20:40.010Z,101125.86
2018-01-24T06:23:15.300Z,101125.36
2018-01-24T06:25:50.422Z,101132.37
2018-01-24T06:28:25.922Z,101128.97
2018-01-24T06:31:01.263Z,101126.38
2018-01-24T06:33:36.465Z,101126.18
2018-01-24T06:36:11.194Z,101129.13
2018-01-24T06:38:46.120Z,101132.52
2018-01-24T06:41:20.555Z,101126.19
2018-01-24T06:43:55.273Z,101131.05
2018-01-24T06:46:30.501Z,101118.70
2018-01-24T06:49:05.288Z,101118.31
2018-01-24T06:51:40.311Z,101118.78
2018-01-24T06:54:15.242Z,101115.74
2018-01-24T06:56:50.192Z,101125.47
2018-01-24T06:59:25.186Z,101109.69
2018-01-24T07:02:00.326Z,101118.82
2018-01-24T07:04:35.067Z,101114.39
2018-01-24T07:07:09.829Z,101114.45
2018-01-24T07:09:45.186Z,101113.67
2018-01-24T07:12:31.496Z,101110.73
2018-01-24T07:15:07.586Z,101098.84
2018-01-24T07:17:43.153Z,101088.27
2018-01-24T07:20:18.360Z,101094.20
2018-01-24T07:22:53.381Z,101098.88
2018-01-24T07:25:28.742Z,101102.29
2018-01-24T07:28:04.292Z,101090.13
2018-01-24T07:30:39.391Z,101107.30
2018-01-24T07:33:14.502Z,101096.48
2018-01-24T07:35:49.254Z,101081.03
2018-01-24T07:38:24.770Z,101085.83
2018-01-24T07:40:59.511Z,101090.25
2018-01-24T07:43:34.430Z,101091.75
2018-01-24T07:46:09.604Z,101084.69
2018-01-24T07:48:46.135Z,101087.61
2018-01-24T07:51:21.346Z,101093.19
2018-01-24T07:53:56.226Z,101081.20
2018-01-24T07:56:31.415Z,101087.83
2018-01-24T07:59:07.518Z,101077.87
2018-01-24T08:01:42.255Z,101074.83
2018-01-24T08:04:17.134Z,101075.83
2018-01-24T08:06:52.029Z,101079.09
2018-01-24T08:09:27.154Z,101081.84
2018-01-24T08:12:02.485Z,101075.85
2018-01-24T08:14:37.652Z,101078.55
2018-01-24T08:17:12.868Z,101075.41
2018-01-24T08:19:47.774Z,101074.50
2018-01-24T08:22:22.818Z,101081.37
2018-01-24T08:24:58.006Z,101080.54
2018-01-24T08:27:32.569Z,101075.77
2018-01-24T08:30:07.882Z,101085.45
2018-01-24T08:32:43.352Z,101084.06
2018-01-24T08:35:18.634Z,101085.66
2018-01-24T08:37:53.504Z,101076.11
2018-01-24T08:40:28.806Z,101086.84
2018-01-24T08:43:04.307Z,101088.56
2018-01-24T08:45:39.506Z,101080.27
2018-01-24T08:48:14.376Z,101081.19
2018-01-24T08:50:48.846Z,101081.02
2018-01-24T08:53:23.739Z,101084.71
2018-01-24T08:55:58.718Z,101073.47
2018-01-24T08:58:34.119Z,101079.38
2018-01-24T09:01:26.130Z,101070.09
2018-01-24T09:04:18.112Z,101070.91
2018-01-24T09:07:10.023Z,101068.73
2018-01-24T09:10:01.121Z,101069.93
2018-01-24T09:12:52.216Z,101066.12
2018-01-24T09:15:43.363Z,101065.87
2018-01-24T09:18:35.370Z,101065.27
2018-01-24T09:21:27.210Z,101061.89
2018-01-24T09:24:19.562Z,101045.52
2018-01-24T09:26:54.628Z,101032.68
2018-01-24T09:29:29.638Z,101026.55
2018-01-24T09:32:04.690Z,101029.52
2018-01-24T09:34:39.707Z,101024.91
2018-01-24T09:37:14.869Z,101022.88
2018-01-24T09:39:49.605Z,101027.81
2018-01-24T09:42:25.059Z,101015.52
2018-01-24T09:44:59.802Z,101008.16
2018-01-24T09:47:34.737Z,101003.30
2018-01-24T09:50:09.916Z,101005.70
2018-01-24T09:52:45.088Z,101000.70
2018-01-24T09:55:20.722Z,100992.52
2018-01-24T09:57:55.629Z,100984.91
2018-01-24T10:00:30.636Z,100980.11
2018-01-24T10:03:05.661Z,100988.02
2018-01-24T10:05:40.718Z,100979.50
2018-01-24T10:08:15.779Z,100988.22
2018-01-24T10:10:50.714Z,100982.30
2018-01-24T10:13:25.447Z,100982.05
2018-01-24T10:16:00.766Z,100985.36
2018-01-24T10:18:35.774Z,100975.09
2018-01-24T10:21:11.235Z,100969.01
2018-01-24T10:23:46.135Z,100983.10
2018-01-24T10:26:21.102Z,100979.37
2018-01-24T10:28:56.076Z,100988.14
2018-01-24T10:31:31.048Z,100966.67
2018-01-24T10:34:06.176Z,100968.02
2018-01-24T10:36:41.246Z,100965.08
2018-01-24T10:39:16.716Z,100962.47
2018-01-24T10:41:51.767Z,100964.05
2018-01-24T10:44:26.851Z,100956.63
2018-01-24T10:47:02.034Z,100954.20
2018-01-24T10:49:36.695Z,100955.48
2018-01-24T10:52:11.798Z,100955.75
2018-01-24T10:54:47.192Z,100944.42
2018-01-24T10:57:22.362Z,100946.09
2018-01-24T10:59:56.974Z,100930.09
2018-01-24T11:02:32.114Z,100940.30
2018-01-24T11:05:08.330Z,100930.29
2018-01-24T11:07:43.136Z,100913.78
2018-01-24T11:10:18.039Z,100912.11
2018-01-24T11:12:53.130Z,100908.86
2018-01-24T11:15:28.074Z,100904.19
2018-01-24T11:18:02.438Z,100892.64
2018-01-24T11:20:37.901Z,100893.12
2018-01-24T11:23:12.931Z,100888.23
2018-01-24T11:25:47.882Z,100888.23
2018-01-24T11:28:22.958Z,100888.09
2018-01-24T11:30:58.160Z,100887.65
2018-01-24T11:33:33.018Z,100885.02
2018-01-24T11:36:08.412Z,100876.61
2018-01-24T11:38:43.143Z,100881.55
2018-01-24T11:41:18.154Z,100866.81
2018-01-24T11:43:53.063Z,100846.53
2018-01-24T11:46:28.022Z,100850.92
2018-01-24T11:49:03.213Z,100844.23
2018-01-24T11:51:38.123Z,100832.39
2018-01-24T11:54:13.323Z,100820.22
2018-01-24T11:56:48.448Z,100827.31
2018-01-24T11:59:24.352Z,100834.44
2018-01-24T12:01:59.903Z,100834.17
2018-01-24T12:04:34.480Z,100822.55
2018-01-24T12:07:09.761Z,100825.80
2018-01-24T12:09:44.602Z,100813.68
2018-01-24T12:12:19.622Z,100790.84
2018-01-24T12:14:55.039Z,100793.57
2018-01-24T12:17:30.301Z,100781.03
2018-01-24T12:20:05.515Z,100766.30
2018-01-24T12:22:40.157Z,100762.83
2018-01-24T12:25:15.206Z,100761.55
2018-01-24T12:27:50.254Z,100768.47
2018-01-24T12:30:25.329Z,100762.21
2018-01-24T12:33:00.364Z,100762.28
2018-01-24T12:35:35.572Z,100744.44
2018-01-24T12:38:10.641Z,100761.21
2018-01-24T12:40:45.508Z,100758.77
2018-01-24T12:43:20.358Z,100758.30
2018-01-24T12:45:55.486Z,100756.99
2018-01-24T12:48:30.384Z,100753.51
2018-01-24T12:51:05.402Z,100737.80
2018-01-24T12:53:40.140Z,100738.54
2018-01-24T12:56:15.150Z,100728.82
2018-01-24T12:58:49.723Z,100727.77
2018-01-24T13:01:25.250Z,100711.35
2018-01-24T13:04:00.357Z,100707.20
2018-01-24T13:06:35.041Z,100716.22
2018-01-24T13:09:09.799Z,100711.22
2018-01-24T13:11:44.780Z,100702.38
2018-01-24T13:14:20.121Z,100693.52
2018-01-24T13:16:55.228Z,100691.37
2018-01-24T13:19:30.236Z,100677.71
2018-01-24T13:22:05.296Z,100681.86
2018-01-24T13:24:40.384Z,100669.50
2018-01-24T13:27:14.999Z,100664.28
2018-01-24T13:29:50.337Z,100661.38
2018-01-24T13:32:25.351Z,100653.73
2018-01-24T13:35:00.460Z,100654.96
2018-01-24T13:37:35.781Z,100644.77
2018-01-24T13:40:10.569Z,100640.54
2018-01-24T13:42:45.694Z,100641.97
2018-01-24T13:45:20.795Z,100635.84
2018-01-24T13:47:55.670Z,100622.65
2018-01-24T13:50:30.374Z,100628.06
2018-01-24T13:53:05.627Z,100624.64
2018-01-24T13:55:40.440Z,100617.38
2018-01-24T13:58:15.870Z,100620.37
2018-01-24T14:00:50.546Z,100615.80
2018-01-24T14:03:25.753Z,100615.23
2018-01-24T14:06:01.031Z,100601.12
2018-01-24T14:08:36.360Z,100602.41
2018-01-24T14:11:11.460Z,100594.34
2018-01-24T14:13:46.526Z,100584.87
2018-01-24T14:16:21.685Z,100593.95
2018-01-24T14:18:56.562Z,100586.14
2018-01-24T14:21:31.751Z,100576.06
2018-01-24T14:24:06.445Z,100575.42
2018-01-24T14:26:41.497Z,100573.88
2018-01-24T14:29:16.644Z,100583.84
2018-01-24T14:31:51.795Z,100566.22
2018-01-24T14:34:26.542Z,100562.59
2018-01-24T14:37:01.479Z,100567.58
2018-01-24T14:39:36.423Z,100562.16
2018-01-24T14:42:11.675Z,100554.73
2018-01-24T14:44:46.541Z,100558.02
2018-01-24T14:47:21.611Z,100565.50
2018-01-24T14:49:56.607Z,100549.20
2018-01-24T14:52:31.542Z,100550.40
2018-01-24T14:55:07.022Z,100570.60
2018-01-24T14:57:41.542Z,100557.38
2018-01-24T15:00:16.478Z,100548.61
2018-01-24T15:02:51.680Z,100543.82
2018-01-24T15:05:26.931Z,100537.21
2018-01-24T15:08:01.818Z,100541.20
2018-01-24T15:10:36.886Z,100529.36
2018-01-24T15:13:12.034Z,100525.09
2018-01-24T15:15:47.051Z,100527.56
2018-01-24T15:18:22.556Z,100537.52
2018-01-24T15:20:57.677Z,100534.14
2018-01-24T15:23:32.626Z,100526.89
2018-01-24T15:26:08.683Z,100531.95
2018-01-24T15:28:43.591Z,100533.23
2018-01-24T15:31:18.782Z,100531.95
2018-01-24T15:33:53.658Z,100530.76
2018-01-24T15:36:28.048Z,100526.05
2018-01-24T15:39:03.210Z,100524.91
2018-01-24T15:41:38.579Z,100525.78
2018-01-24T15:44:13.646Z,100530.28
2018-01-24T15:46:48.687Z,100548.53
2018-01-24T15:49:23.767Z,100524.58
2018-01-24T15:51:58.734Z,100532.43
2018-01-24T15:54:33.737Z,100538.69
2018-01-24T15:57:09.018Z,100535.14
2018-01-24T15:59:43.719Z,100534.14
2018-01-24T16:02:18.714Z,100527.17
2018-01-24T16:04:53.718Z,100526.78
2018-01-24T16:07:28.626Z,100516.94
2018-01-24T16:10:03.552Z,100511.91
2018-01-24T16:12:38.757Z,100519.61
2018-01-24T16:15:14.009Z,100513.75
2018-01-24T16:17:49.002Z,100523.39
2018-01-24T16:20:24.070Z,100517.17
2018-01-24T16:22:59.035Z,100505.70
2018-01-24T16:25:33.842Z,100513.62
2018-01-24T16:28:08.888Z,100530.11
2018-01-24T16:30:44.146Z,100511.52
2018-01-24T16:33:19.715Z,100508.80
2018-01-24T16:35:54.599Z,100517.77
2018-01-24T16:38:29.774Z,100525.69
2018-01-24T16:41:04.798Z,100517.16
2018-01-24T16:43:39.757Z,100518.20
2018-01-24T16:46:14.702Z,100524.77
2018-01-24T16:48:49.970Z,100516.88
2018-01-24T16:51:25.303Z,100512.18
2018-01-24T16:54:00.387Z,100523.75
2018-01-24T16:56:35.175Z,100518.61
2018-01-24T16:59:10.178Z,100512.43
2018-01-24T17:01:45.272Z,100515.63
2018-01-24T17:04:20.361Z,100513.07
2018-01-24T17:06:55.019Z,100502.31
2018-01-24T17:09:30.394Z,100517.77
2018-01-24T17:12:05.737Z,100512.00
2018-01-24T17:14:40.904Z,100501.37
2018-01-24T17:17:16.061Z,100498.18
2018-01-24T17:19:50.931Z,100495.75
2018-01-24T17:22:25.911Z,100496.62
2018-01-24T17:25:00.939Z,100491.64
2018-01-24T17:27:36.034Z,100494.75
2018-01-24T17:30:11.218Z,100480.94
2018-01-24T17:32:46.210Z,100476.83
2018-01-24T17:35:21.188Z,100482.64
2018-01-24T17:37:56.186Z,100462.42
2018-01-24T17:40:31.128Z,100478.55
2018-01-24T17:43:06.539Z,100472.41
2018-01-24T17:45:41.810Z,100470.75
2018-01-24T17:48:17.246Z,100484.87
2018-01-24T17:50:51.975Z,100462.43
2018-01-24T17:53:26.612Z,100460.80
2018-01-24T17:56:01.416Z,100467.61
2018-01-24T17:58:36.374Z,100465.78
2018-01-24T18:01:11.274Z,100474.30
2018-01-24T18:03:46.050Z,100466.03
2018-01-24T18:06:21.081Z,100455.41
2018-01-24T18:08:55.977Z,100475.73
2018-01-24T18:11:30.834Z,100477.30
2018-01-24T18:14:05.906Z,100485.26
2018-01-24T18:16:40.956Z,100469.09
2018-01-24T18:19:16.580Z,100489.98
2018-01-24T18:21:52.189Z,100475.66
2018-01-24T18:24:27.263Z,100488.40
2018-01-24T18:27:02.362Z,100475.02
2018-01-24T18:29:37.361Z,100468.25
2018-01-24T18:32:12.918Z,100474.71
2018-01-24T18:34:48.008Z,100479.36
2018-01-24T18:37:23.472Z,100475.94
2018-01-24T18:39:58.361Z,100467.74
2018-01-24T18:42:33.510Z,100468.45
2018-01-24T18:45:09.471Z,100472.52
2018-01-24T18:47:44.097Z,100460.77
2018-01-24T18:50:19.066Z,100461.84
2018-01-24T18:52:54.326Z,100468.25
2018-01-24T18:55:29.602Z,100461.61
2018-01-24T18:58:05.106Z,100451.50
2018-01-24T19:00:39.724Z,100444.81
2018-01-24T19:03:15.449Z,100462.25
2018-01-24T19:05:50.195Z,100448.08
2018-01-24T19:08:25.414Z,100440.03
2018-01-24T19:11:00.435Z,100440.67
2018-01-24T19:13:35.132Z,100439.52
2018-01-24T19:16:10.586Z,100431.19
2018-01-24T19:18:45.562Z,100429.48
2018-01-24T19:21:23.414Z,100422.31
2018-01-24T19:23:57.747Z,100413.05
2018-01-24T19:26:32.623Z,100396.24
2018-01-24T19:29:07.502Z,100403.33
2018-01-24T19:31:42.374Z,100392.42
2018-01-24T19:34:17.422Z,100409.45
2018-01-24T19:36:52.531Z,100395.92
2018-01-24T19:39:27.655Z,100395.08
2018-01-24T19:42:02.854Z,100399.34
2018-01-24T19:44:38.325Z,100383.99
2018-01-24T19:47:13.602Z,100387.73
2018-01-24T19:49:48.342Z,100372.08
2018-01-24T19:52:23.544Z,100387.95
2018-01-24T19:54:58.029Z,100384.89
2018-01-24T19:57:33.210Z,100382.39
2018-01-24T20:00:09.042Z,100365.75
2018-01-24T20:02:43.910Z,100365.60
2018-01-24T20:05:19.471Z,100365.52
2018-01-24T20:07:54.220Z,100363.89
2018-01-24T20:10:29.195Z,100367.31
2018-01-24T20:13:04.234Z,100367.62
2018-01-24T20:15:38.921Z,100368.69
2018-01-24T20:18:14.383Z,100365.47
2018-01-24T20:20:49.234Z,100371.83
2018-01-24T20:23:24.249Z,100388.19
2018-01-24T20:25:59.343Z,100374.66
2018-01-24T20:28:34.338Z,100371.52
2018-01-24T20:31:09.770Z,100365.12
2018-01-24T20:33:44.481Z,100356.23
2018-01-24T20:36:19.369Z,100364.27
2018-01-24T20:38:54.553Z,100365.22
2018-01-24T20:41:29.580Z,100353.41
2018-01-24T20:44:04.440Z,100358.73
2018-01-24T20:46:39.319Z,100362.08
2018-01-24T20:49:14.681Z,100358.69
2018-01-24T20:51:49.795Z,100353.32
2018-01-24T20:54:25.050Z,100343.58
2018-01-24T20:57:00.292Z,100331.13
2018-01-24T20:59:35.318Z,100348.70
2018-01-24T21:02:10.296Z,100345.28
2018-01-24T21:04:45.371Z,100340.31
2018-01-24T21:07:20.118Z,100355.41
2018-01-24T21:09:55.549Z,100350.28
2018-01-24T21:12:31.229Z,100344.31
2018-01-24T21:15:06.554Z,100348.30
2018-01-24T21:17:41.439Z,100340.73
2018-01-24T21:20:16.650Z,100344.37
2018-01-24T21:22:51.477Z,100343.94
2018-01-24T21:25:26.508Z,100346.52
2018-01-24T21:28:01.716Z,100344.08
2018-01-24T21:30:47.965Z,100344.95
2018-01-24T21:33:34.026Z,100339.95
2018-01-24T21:39:02.235Z,100327.43
2018-01-24T21:41:37.554Z,100325.67
2018-01-24T21:44:12.870Z,100314.98
2018-01-24T21:46:47.735Z,100323.33
2018-01-24T21:49:22.782Z,100322.02
2018-01-24T21:51:57.793Z,100316.97
2018-01-24T21:54:32.742Z,100329.27
2018-01-24T21:57:07.880Z,100330.89
2018-01-24T21:59:42.930Z,100336.98
2018-01-24T22:02:18.538Z,100338.09
2018-01-24T22:04:53.201Z,100351.84
2018-01-24T22:07:28.275Z,100338.17
2018-01-24T22:10:03.686Z,100356.81
2018-01-24T22:12:38.715Z,100353.19
2018-01-24T22:15:13.494Z,100348.16
2018-01-24T22:17:49.223Z,100343.73
2018-01-24T22:20:24.679Z,100344.28
2018-01-24T22:22:59.902Z,100348.45
2018-01-24T22:25:34.823Z,100351.63
2018-01-24T22:28:10.143Z,100351.42
2018-01-24T22:30:44.829Z,100358.39
2018-01-24T22:33:19.899Z,100342.02
2018-01-24T22:35:54.857Z,100340.73
2018-01-24T22:38:30.069Z,100346.02
2018-01-24T22:41:05.654Z,100342.95
2018-01-24T22:43:40.858Z,100336.55
2018-01-24T22:46:16.006Z,100352.13
2018-01-24T22:48:51.339Z,100365.09
2018-01-24T22:51:26.243Z,100354.69
2018-01-24T22:54:01.294Z,100352.42
2018-01-24T22:56:36.658Z,100352.55
2018-01-24T22:59:11.680Z,100341.73
2018-01-24T23:01:46.746Z,100362.09
2018-01-24T23:04:22.059Z,100387.84
2018-01-24T23:06:56.906Z,100355.33
2018-01-24T23:09:31.934Z,100365.66
2018-01-24T23:12:07.087Z,100374.81
2018-01-24T23:14:41.884Z,100375.24
2018-01-24T23:17:16.840Z,100362.59
2018-01-24T23:19:51.866Z,100365.28
2018-01-24T23:22:27.162Z,100362.93
2018-01-24T23:25:01.930Z,100370.41
2018-01-24T23:27:36.827Z,100373.91
2018-01-24T23:30:11.951Z,100371.55
2018-01-24T23:32:46.773Z,100376.69
2018-01-24T23:35:22.151Z,100374.39
2018-01-24T23:37:57.102Z,100374.19
2018-01-24T23:40:31.814Z,100387.64
2018-01-24T23:43:07.011Z,100387.80
2018-01-24T23:45:42.195Z,100384.72
2018-01-24T23:48:17.479Z,100386.42
2018-01-24T23:50:52.827Z,100420.86
2018-01-24T23:53:28.085Z,100387.98
2018-01-24T23:56:02.869Z,100389.06
2018-01-24T23:58:37.421Z,100384.38
